Adolphus, Kentucky
Current Conditions -  °F | °C
As of 12:53 PM on Friday 28 Nov 2014 (Local Time) from KBWG Reporting Station
Clear Clear  
Wind Chill:   Ceiling: Unl
Heat Index:   Visibility: 10mi
Dew Point: -6°   Wind: 7mph
Humidity: 45%   Direction: 180°S
Pressure: 30.29"   Gusts: NA
Location:  36.65°N, 86.26°W
Report Text: KBWG 281853Z AUTO 18006KT 10SM CLR 05/M06 A3029 RMK AO2 PRESFR SLP261 T00501061
Loading
Personal Weather Stations






























Interactive Weather Map New forecast layout! Learn more

10-Day Weather Forecast

Advertisements
Track Severe Weather on mobile